sensor_id;sensor_type;location;lat;lon;timestamp;temperature;humidity
13665;DHT22;6905;50.770;6.730;2024-03-08T00:01:03;3.40;99.90
13665;DHT22;6905;50.770;6.730;2024-03-08T00:03:36;3.40;99.90
13665;DHT22;6905;50.770;6.730;2024-03-08T00:06:05;3.30;99.90
13665;DHT22;6905;50.770;6.730;2024-03-08T00:08:37;3.30;99.90
13665;DHT22;6905;50.770;6.730;2024-03-08T00:13:55;3.20;99.90
13665;DHT22;6905;50.770;6.730;2024-03-08T00:16:33;3.20;99.90
13665;DHT22;6905;50.770;6.730;2024-03-08T00:19:13;3.10;99.90
13665;DHT22;6905;50.770;6.730;2024-03-08T00:21:40;3.20;99.90
13665;DHT22;6905;50.770;6.730;2024-03-08T00:24:19;3.10;99.90
13665;DHT22;6905;50.770;6.730;2024-03-08T00:27:11;3.10;99.90
13665;DHT22;6905;50.770;6.730;2024-03-08T00:29:38;3.10;99.90
13665;DHT22;6905;50.770;6.730;2024-03-08T00:32:07;3.10;99.90
13665;DHT22;6905;50.770;6.730;2024-03-08T00:34:41;3.00;99.90
13665;DHT22;6905;50.770;6.730;2024-03-08T00:37:12;3.00;99.90
13665;DHT22;6905;50.770;6.730;2024-03-08T00:39:41;3.00;99.90
13665;DHT22;6905;50.770;6.730;2024-03-08T00:42:14;3.00;99.90
13665;DHT22;6905;50.770;6.730;2024-03-08T00:44:45;3.00;99.90
13665;DHT22;6905;50.770;6.730;2024-03-08T00:47:13;2.90;99.90
13665;DHT22;6905;50.770;6.730;2024-03-08T00:52:38;2.90;99.90
13665;DHT22;6905;50.770;6.730;2024-03-08T00:55:05;2.90;99.90
13665;DHT22;6905;50.770;6.730;2024-03-08T00:57:33;2.90;99.90
13665;DHT22;6905;50.770;6.730;2024-03-08T01:00:03;2.80;99.90
13665;DHT22;6905;50.770;6.730;2024-03-08T01:02:30;2.80;99.90
13665;DHT22;6905;50.770;6.730;2024-03-08T01:05:00;2.80;99.90
13665;DHT22;6905;50.770;6.730;2024-03-08T01:07:27;2.70;99.90
13665;DHT22;6905;50.770;6.730;2024-03-08T01:09:55;2.70;99.90
13665;DHT22;6905;50.770;6.730;2024-03-08T01:12:22;2.60;99.90
13665;DHT22;6905;50.770;6.730;2024-03-08T01:14:50;2.60;99.90
13665;DHT22;6905;50.770;6.730;2024-03-08T01:17:16;2.60;99.90
13665;DHT22;6905;50.770;6.730;2024-03-08T01:19:43;2.60;99.90
13665;DHT22;6905;50.770;6.730;2024-03-08T01:22:13;2.50;99.90
13665;DHT22;6905;50.770;6.730;2024-03-08T01:24:40;2.50;99.90
13665;DHT22;6905;50.770;6.730;2024-03-08T01:27:09;2.50;99.90
13665;DHT22;6905;50.770;6.730;2024-03-08T01:29:37;2.50;99.90
13665;DHT22;6905;50.770;6.730;2024-03-08T01:32:05;2.50;99.90
13665;DHT22;6905;50.770;6.730;2024-03-08T01:34:31;2.40;99.90
13665;DHT22;6905;50.770;6.730;2024-03-08T01:37:00;2.40;99.90
13665;DHT22;6905;50.770;6.730;2024-03-08T01:39:28;2.40;99.90
13665;DHT22;6905;50.770;6.730;2024-03-08T01:41:55;2.40;99.90
13665;DHT22;6905;50.770;6.730;2024-03-08T01:44:23;2.40;99.90
13665;DHT22;6905;50.770;6.730;2024-03-08T01:46:50;2.40;99.90
13665;DHT22;6905;50.770;6.730;2024-03-08T01:49:17;2.30;99.90
13665;DHT22;6905;50.770;6.730;2024-03-08T01:51:46;2.30;99.90
13665;DHT22;6905;50.770;6.730;2024-03-08T01:54:14;2.30;99.90
13665;DHT22;6905;50.770;6.730;2024-03-08T01:56:41;2.30;99.90
13665;DHT22;6905;50.770;6.730;2024-03-08T01:59:09;2.30;99.90
13665;DHT22;6905;50.770;6.730;2024-03-08T02:01:37;2.20;99.90
13665;DHT22;6905;50.770;6.730;2024-03-08T02:04:06;2.20;99.90
13665;DHT22;6905;50.770;6.730;2024-03-08T02:06:34;2.20;99.90
13665;DHT22;6905;50.770;6.730;2024-03-08T02:09:05;2.20;99.90
13665;DHT22;6905;50.770;6.730;2024-03-08T02:11:35;2.20;99.90
13665;DHT22;6905;50.770;6.730;2024-03-08T02:14:02;2.10;99.90
13665;DHT22;6905;50.770;6.730;2024-03-08T02:16:33;2.10;99.90
13665;DHT22;6905;50.770;6.730;2024-03-08T02:19:01;2.10;99.90
13665;DHT22;6905;50.770;6.730;2024-03-08T02:21:30;2.00;99.90
13665;DHT22;6905;50.770;6.730;2024-03-08T02:23:59;2.00;99.90
13665;DHT22;6905;50.770;6.730;2024-03-08T02:26:25;2.00;99.90
13665;DHT22;6905;50.770;6.730;2024-03-08T02:28:52;2.00;99.90
13665;DHT22;6905;50.770;6.730;2024-03-08T02:31:19;1.90;99.90
13665;DHT22;6905;50.770;6.730;2024-03-08T02:33:47;1.90;99.90
13665;DHT22;6905;50.770;6.730;2024-03-08T02:36:16;1.80;99.90
13665;DHT22;6905;50.770;6.730;2024-03-08T02:38:44;1.90;99.90
13665;DHT22;6905;50.770;6.730;2024-03-08T02:41:13;1.80;99.90
13665;DHT22;6905;50.770;6.730;2024-03-08T02:43:40;1.80;99.90
13665;DHT22;6905;50.770;6.730;2024-03-08T02:46:07;1.80;99.90
13665;DHT22;6905;50.770;6.730;2024-03-08T02:48:35;1.80;99.90
13665;DHT22;6905;50.770;6.730;2024-03-08T02:51:02;1.70;99.90
13665;DHT22;6905;50.770;6.730;2024-03-08T02:53:38;1.70;99.90
13665;DHT22;6905;50.770;6.730;2024-03-08T02:56:06;1.70;99.90
13665;DHT22;6905;50.770;6.730;2024-03-08T02:58:35;1.60;99.90
13665;DHT22;6905;50.770;6.730;2024-03-08T03:01:02;1.60;99.90
13665;DHT22;6905;50.770;6.730;2024-03-08T03:03:29;1.60;99.90
13665;DHT22;6905;50.770;6.730;2024-03-08T03:05:57;1.60;99.90
13665;DHT22;6905;50.770;6.730;2024-03-08T03:08:26;1.50;99.90
13665;DHT22;6905;50.770;6.730;2024-03-08T03:10:58;1.50;99.90
13665;DHT22;6905;50.770;6.730;2024-03-08T03:13:34;1.50;99.90
13665;DHT22;6905;50.770;6.730;2024-03-08T03:16:02;1.40;99.90
13665;DHT22;6905;50.770;6.730;2024-03-08T03:18:29;1.40;99.90
13665;DHT22;6905;50.770;6.730;2024-03-08T03:20:58;1.40;99.90
13665;DHT22;6905;50.770;6.730;2024-03-08T03:23:25;1.40;99.90
13665;DHT22;6905;50.770;6.730;2024-03-08T03:25:52;1.30;99.90
13665;DHT22;6905;50.770;6.730;2024-03-08T03:28:25;1.20;99.90
13665;DHT22;6905;50.770;6.730;2024-03-08T03:30:57;1.20;99.90
13665;DHT22;6905;50.770;6.730;2024-03-08T03:33:25;1.20;99.90
13665;DHT22;6905;50.770;6.730;2024-03-08T03:35:54;1.10;99.90
13665;DHT22;6905;50.770;6.730;2024-03-08T03:38:21;1.10;99.90
13665;DHT22;6905;50.770;6.730;2024-03-08T03:40:49;1.10;99.90
13665;DHT22;6905;50.770;6.730;2024-03-08T03:43:18;1.10;99.90
13665;DHT22;6905;50.770;6.730;2024-03-08T03:45:45;1.10;99.90
13665;DHT22;6905;50.770;6.730;2024-03-08T03:48:13;1.10;99.90
13665;DHT22;6905;50.770;6.730;2024-03-08T03:50:46;1.00;99.90
13665;DHT22;6905;50.770;6.730;2024-03-08T03:53:13;1.00;99.90
13665;DHT22;6905;50.770;6.730;2024-03-08T03:55:40;1.00;99.90
13665;DHT22;6905;50.770;6.730;2024-03-08T03:58:08;1.00;99.90
13665;DHT22;6905;50.770;6.730;2024-03-08T04:00:41;1.00;99.90
13665;DHT22;6905;50.770;6.730;2024-03-08T04:03:10;0.90;99.90
13665;DHT22;6905;50.770;6.730;2024-03-08T04:05:48;0.90;99.90
13665;DHT22;6905;50.770;6.730;2024-03-08T04:08:24;0.90;99.90
13665;DHT22;6905;50.770;6.730;2024-03-08T04:10:51;0.90;99.90
13665;DHT22;6905;50.770;6.730;2024-03-08T04:13:20;0.80;99.90
13665;DHT22;6905;50.770;6.730;2024-03-08T04:15:56;0.80;99.90
13665;DHT22;6905;50.770;6.730;2024-03-08T04:18:36;0.80;99.90
13665;DHT22;6905;50.770;6.730;2024-03-08T04:26:55;0.70;99.90
13665;DHT22;6905;50.770;6.730;2024-03-08T04:29:31;0.70;99.90
13665;DHT22;6905;50.770;6.730;2024-03-08T04:32:08;0.70;99.90
13665;DHT22;6905;50.770;6.730;2024-03-08T04:34:42;0.70;99.90
13665;DHT22;6905;50.770;6.730;2024-03-08T04:37:13;0.60;99.90
13665;DHT22;6905;50.770;6.730;2024-03-08T04:39:47;0.60;99.90
13665;DHT22;6905;50.770;6.730;2024-03-08T04:42:33;0.60;99.90
13665;DHT22;6905;50.770;6.730;2024-03-08T04:45:02;0.60;99.90
13665;DHT22;6905;50.770;6.730;2024-03-08T04:47:36;0.60;99.90
13665;DHT22;6905;50.770;6.730;2024-03-08T04:50:03;0.60;99.90
13665;DHT22;6905;50.770;6.730;2024-03-08T04:52:36;0.60;99.90
13665;DHT22;6905;50.770;6.730;2024-03-08T04:55:17;0.60;99.90
13665;DHT22;6905;50.770;6.730;2024-03-08T04:57:58;0.50;99.90
13665;DHT22;6905;50.770;6.730;2024-03-08T05:00:29;0.50;99.90
13665;DHT22;6905;50.770;6.730;2024-03-08T05:05:46;0.50;99.90
13665;DHT22;6905;50.770;6.730;2024-03-08T05:08:16;0.50;99.90
13665;DHT22;6905;50.770;6.730;2024-03-08T05:10:44;0.50;99.90
13665;DHT22;6905;50.770;6.730;2024-03-08T05:13:16;0.40;99.90
13665;DHT22;6905;50.770;6.730;2024-03-08T05:15:50;0.40;99.90
13665;DHT22;6905;50.770;6.730;2024-03-08T05:18:20;0.40;99.90
13665;DHT22;6905;50.770;6.730;2024-03-08T05:20:51;0.40;99.90
13665;DHT22;6905;50.770;6.730;2024-03-08T05:23:19;0.40;99.90
13665;DHT22;6905;50.770;6.730;2024-03-08T05:25:47;0.40;99.90
13665;DHT22;6905;50.770;6.730;2024-03-08T05:28:17;0.40;99.90
13665;DHT22;6905;50.770;6.730;2024-03-08T05:30:45;0.40;99.90
13665;DHT22;6905;50.770;6.730;2024-03-08T05:33:12;0.30;99.90
13665;DHT22;6905;50.770;6.730;2024-03-08T05:35:39;0.40;99.90
13665;DHT22;6905;50.770;6.730;2024-03-08T05:38:07;0.30;99.90
13665;DHT22;6905;50.770;6.730;2024-03-08T05:40:37;0.30;99.90
13665;DHT22;6905;50.770;6.730;2024-03-08T05:43:04;0.30;99.90
13665;DHT22;6905;50.770;6.730;2024-03-08T05:45:32;0.30;99.90
13665;DHT22;6905;50.770;6.730;2024-03-08T05:48:01;0.30;99.90
13665;DHT22;6905;50.770;6.730;2024-03-08T05:50:28;0.30;99.90
13665;DHT22;6905;50.770;6.730;2024-03-08T05:52:55;0.30;99.90
13665;DHT22;6905;50.770;6.730;2024-03-08T05:55:22;0.30;99.90
13665;DHT22;6905;50.770;6.730;2024-03-08T05:57:50;0.30;99.90
13665;DHT22;6905;50.770;6.730;2024-03-08T06:00:22;0.20;99.90
13665;DHT22;6905;50.770;6.730;2024-03-08T06:02:51;0.30;99.90
13665;DHT22;6905;50.770;6.730;2024-03-08T06:05:18;0.30;99.90
13665;DHT22;6905;50.770;6.730;2024-03-08T06:07:47;0.20;99.90
13665;DHT22;6905;50.770;6.730;2024-03-08T06:10:15;0.20;99.90
13665;DHT22;6905;50.770;6.730;2024-03-08T06:12:43;0.20;99.90
13665;DHT22;6905;50.770;6.730;2024-03-08T06:15:13;0.20;99.90
13665;DHT22;6905;50.770;6.730;2024-03-08T06:17:41;0.20;99.90
13665;DHT22;6905;50.770;6.730;2024-03-08T06:20:10;0.20;99.90
13665;DHT22;6905;50.770;6.730;2024-03-08T06:22:38;0.20;99.90
13665;DHT22;6905;50.770;6.730;2024-03-08T06:25:09;0.20;99.90
13665;DHT22;6905;50.770;6.730;2024-03-08T06:27:39;0.20;99.90
13665;DHT22;6905;50.770;6.730;2024-03-08T06:30:08;0.20;99.90
13665;DHT22;6905;50.770;6.730;2024-03-08T06:32:36;0.20;99.90
13665;DHT22;6905;50.770;6.730;2024-03-08T06:35:03;0.20;99.90
13665;DHT22;6905;50.770;6.730;2024-03-08T06:37:33;0.20;99.90
13665;DHT22;6905;50.770;6.730;2024-03-08T06:40:00;0.20;99.90
13665;DHT22;6905;50.770;6.730;2024-03-08T06:42:41;0.20;99.90
13665;DHT22;6905;50.770;6.730;2024-03-08T06:45:09;0.20;99.90
13665;DHT22;6905;50.770;6.730;2024-03-08T06:47:38;0.20;99.90
13665;DHT22;6905;50.770;6.730;2024-03-08T06:50:07;0.30;99.90
13665;DHT22;6905;50.770;6.730;2024-03-08T06:52:47;0.30;99.90
13665;DHT22;6905;50.770;6.730;2024-03-08T06:55:20;0.40;99.90
13665;DHT22;6905;50.770;6.730;2024-03-08T06:58:19;0.40;99.90
13665;DHT22;6905;50.770;6.730;2024-03-08T07:00:49;0.50;99.90
13665;DHT22;6905;50.770;6.730;2024-03-08T07:03:17;0.50;99.90
13665;DHT22;6905;50.770;6.730;2024-03-08T07:05:44;0.60;99.90
13665;DHT22;6905;50.770;6.730;2024-03-08T07:08:13;0.60;99.90
13665;DHT22;6905;50.770;6.730;2024-03-08T07:10:42;0.70;99.90
13665;DHT22;6905;50.770;6.730;2024-03-08T07:13:10;0.80;99.90
13665;DHT22;6905;50.770;6.730;2024-03-08T07:15:45;0.80;99.90
13665;DHT22;6905;50.770;6.730;2024-03-08T07:18:15;0.90;99.90
13665;DHT22;6905;50.770;6.730;2024-03-08T07:20:42;1.00;99.90
13665;DHT22;6905;50.770;6.730;2024-03-08T07:23:09;1.10;99.90
13665;DHT22;6905;50.770;6.730;2024-03-08T07:26:01;1.20;99.90
13665;DHT22;6905;50.770;6.730;2024-03-08T07:28:29;1.30;99.90
13665;DHT22;6905;50.770;6.730;2024-03-08T07:30:56;1.40;99.90
13665;DHT22;6905;50.770;6.730;2024-03-08T07:33:38;1.50;99.90
13665;DHT22;6905;50.770;6.730;2024-03-08T07:36:08;1.60;99.90
13665;DHT22;6905;50.770;6.730;2024-03-08T07:38:38;1.70;99.90
13665;DHT22;6905;50.770;6.730;2024-03-08T07:41:29;1.80;99.90
13665;DHT22;6905;50.770;6.730;2024-03-08T07:44:18;2.00;99.90
13665;DHT22;6905;50.770;6.730;2024-03-08T07:50:02;2.20;99.90
13665;DHT22;6905;50.770;6.730;2024-03-08T07:52:35;2.30;99.90
13665;DHT22;6905;50.770;6.730;2024-03-08T07:57:17;2.50;99.90
13665;DHT22;6905;50.770;6.730;2024-03-08T07:58:06;2.60;99.90
13665;DHT22;6905;50.770;6.730;2024-03-08T08:00:57;2.70;99.90
13665;DHT22;6905;50.770;6.730;2024-03-08T08:03:34;2.80;99.90
13665;DHT22;6905;50.770;6.730;2024-03-08T08:06:24;3.00;99.90
13665;DHT22;6905;50.770;6.730;2024-03-08T08:09:00;3.10;99.90
13665;DHT22;6905;50.770;6.730;2024-03-08T08:11:50;3.20;99.90
13665;DHT22;6905;50.770;6.730;2024-03-08T08:14:19;3.30;99.90
13665;DHT22;6905;50.770;6.730;2024-03-08T08:16:56;3.50;99.90
13665;DHT22;6905;50.770;6.730;2024-03-08T08:22:15;3.70;99.90
13665;DHT22;6905;50.770;6.730;2024-03-08T08:24:58;3.80;99.90
13665;DHT22;6905;50.770;6.730;2024-03-08T08:30:35;4.10;99.90
13665;DHT22;6905;50.770;6.730;2024-03-08T08:33:46;4.20;99.90
13665;DHT22;6905;50.770;6.730;2024-03-08T08:36:30;4.30;99.90
13665;DHT22;6905;50.770;6.730;2024-03-08T11:19:58;11.10;99.90
13665;DHT22;6905;50.770;6.730;2024-03-08T11:23:09;11.20;99.90
13665;DHT22;6905;50.770;6.730;2024-03-08T11:26:37;11.30;99.90
13665;DHT22;6905;50.770;6.730;2024-03-08T11:32:03;11.50;99.90
13665;DHT22;6905;50.770;6.730;2024-03-08T11:34:34;11.60;99.90
13665;DHT22;6905;50.770;6.730;2024-03-08T11:37:14;11.70;99.90
13665;DHT22;6905;50.770;6.730;2024-03-08T11:43:11;11.90;99.90
13665;DHT22;6905;50.770;6.730;2024-03-08T11:46:28;12.00;99.90
13665;DHT22;6905;50.770;6.730;2024-03-08T11:52:09;12.30;99.90
13665;DHT22;6905;50.770;6.730;2024-03-08T11:55:01;12.50;99.90
13665;DHT22;6905;50.770;6.730;2024-03-08T11:57:33;12.60;99.90
13665;DHT22;6905;50.770;6.730;2024-03-08T12:00:24;12.60;99.90
13665;DHT22;6905;50.770;6.730;2024-03-08T12:03:12;12.70;99.90
13665;DHT22;6905;50.770;6.730;2024-03-08T12:05:59;12.70;99.90
13665;DHT22;6905;50.770;6.730;2024-03-08T12:08:47;12.90;99.90
13665;DHT22;6905;50.770;6.730;2024-03-08T12:20:23;13.00;99.90
13665;DHT22;6905;50.770;6.730;2024-03-08T12:23:20;13.10;99.90
13665;DHT22;6905;50.770;6.730;2024-03-08T12:26:24;13.30;99.90
13665;DHT22;6905;50.770;6.730;2024-03-08T12:35:49;13.50;99.90
13665;DHT22;6905;50.770;6.730;2024-03-08T12:38:45;13.60;99.90
13665;DHT22;6905;50.770;6.730;2024-03-08T12:41:43;13.80;99.90
13665;DHT22;6905;50.770;6.730;2024-03-08T13:12:11;15.20;99.90
13665;DHT22;6905;50.770;6.730;2024-03-08T13:15:25;15.30;99.90
13665;DHT22;6905;50.770;6.730;2024-03-08T13:18:17;15.40;99.90
13665;DHT22;6905;50.770;6.730;2024-03-08T13:30:35;15.50;96.70
13665;DHT22;6905;50.770;6.730;2024-03-08T13:33:31;15.60;95.20
13665;DHT22;6905;50.770;6.730;2024-03-08T13:36:23;15.60;95.60
13665;DHT22;6905;50.770;6.730;2024-03-08T13:39:29;15.60;94.70
13665;DHT22;6905;50.770;6.730;2024-03-08T13:42:18;15.60;96.70
13665;DHT22;6905;50.770;6.730;2024-03-08T13:45:08;15.80;96.00
13665;DHT22;6905;50.770;6.730;2024-03-08T13:54:17;15.80;93.80
13665;DHT22;6905;50.770;6.730;2024-03-08T13:57:09;15.80;94.50
13665;DHT22;6905;50.770;6.730;2024-03-08T14:06:01;15.90;97.60
13665;DHT22;6905;50.770;6.730;2024-03-08T14:15:19;16.20;96.10
13665;DHT22;6905;50.770;6.730;2024-03-08T14:18:22;16.40;95.90
13665;DHT22;6905;50.770;6.730;2024-03-08T14:30:41;16.00;93.20
13665;DHT22;6905;50.770;6.730;2024-03-08T14:39:29;16.20;91.80
13665;DHT22;6905;50.770;6.730;2024-03-08T14:42:15;16.10;91.30
13665;DHT22;6905;50.770;6.730;2024-03-08T15:12:40;16.10;93.80
13665;DHT22;6905;50.770;6.730;2024-03-08T15:18:45;16.10;90.70
13665;DHT22;6905;50.770;6.730;2024-03-08T16:22:48;13.70;98.30
13665;DHT22;6905;50.770;6.730;2024-03-08T16:25:40;13.60;97.90
13665;DHT22;6905;50.770;6.730;2024-03-08T16:34:57;13.10;98.80
13665;DHT22;6905;50.770;6.730;2024-03-08T16:40:54;12.90;99.90
13665;DHT22;6905;50.770;6.730;2024-03-08T17:23:41;10.80;99.90
13665;DHT22;6905;50.770;6.730;2024-03-08T17:26:28;10.70;99.90
13665;DHT22;6905;50.770;6.730;2024-03-08T17:44:07;10.20;99.90
13665;DHT22;6905;50.770;6.730;2024-03-08T17:46:45;10.10;99.90
13665;DHT22;6905;50.770;6.730;2024-03-08T17:55:37;9.90;99.90
13665;DHT22;6905;50.770;6.730;2024-03-08T17:58:32;9.70;99.90
